Ithaca Tompkins Regional Airport
KITH : rendu visible

Aérodrome :











RETROUVEZ-NOUS SUR...

 
LOGIN :

S'inscrire | Disclaimer

   EN    FR    IT 

 









Légende :    VFR   VFR Marginal   IFR   IFR Intensif   IFR Très Intensif
Visi : 
Plafond : 
>= 8 km
>= 3000ft
5 à 8 km
1000 à 3000 ft
1500m à 5 km
500 à 1000 ft
800 à 1500m
200 à 500 ft
< 800m
< 200 ft
Symboles :   Orages  Brouillard  Fortes neiges  Fortes précipitations  Vent > 20 kt






- Altitude de l'aérodrome : 1099 ft
- Code IATA : ITH


KITH - Ithaca Tompkins Regional

DERNIER METAR :
  • 271256Z 16007KT 10SM CLR 24/19 A3019 RMK AO2 SLP217 T02390189

METARs EXPIRÉS :
  • 271156Z 16006KT 10SM CLR 23/18 A3019 RMK AO2 SLP215 T02280183 10228 20183 51011
  • 271056Z 15005KT 10SM CLR 21/18 A3019 RMK AO2 SLP211 T02110178
  • 271030Z 12004KT 10SM CLR 20/18 A3018 RMK AO2
  • 270956Z AUTO 11004KT 10SM CLR 19/18 A3017 RMK AO2 SLP207 T01890178

TAF KITH
Valide du 27 à 12h jusqu'au 28 à 12h UTC


271120Z 2712/2812 15006KT P6SM FEW250
FM271700 18008KT P6SM SCT050 BKN200
FM280800 17007KT P6SM BKN025
FM281000 16007KT P6SM OVC018
FIR KZNY / Amérique du Nord



MET'MAP, la Météo Aéronautique d'un coup d'oeil ! - Copyright ORBIFLY Décembre 2007 - Disclaimer

ORBIFLY MET'MAP TEAM :

Programmation & Développement : Alexandra Zaïnal
Sur une idée originale de : Baudouin d'Aumeries
Assistance à la programmation : Marc-Olivier Méhu
Soutien technique & logistique : Manuel Goepfert

Contact : metmap@orbifly.com




SOURCES & CREDITS :

   NOAA       Earth
Advisory